createdAt,value
2017-03-25T00:00:03.094Z,0
2017-03-25T00:05:03.144Z,0
2017-03-25T00:10:02.864Z,0
2017-03-25T00:15:02.555Z,0
2017-03-25T00:20:03.245Z,0
2017-03-25T00:25:02.925Z,0
2017-03-25T00:30:02.565Z,0
2017-03-25T00:35:03.236Z,0
2017-03-25T00:40:02.838Z,0
2017-03-25T00:45:03.424Z,0
2017-03-25T00:50:03.176Z,0
2017-03-25T00:55:02.827Z,0
2017-03-25T01:00:02.572Z,0
2017-03-25T01:05:02.611Z,0
2017-03-25T01:10:03.265Z,0
2017-03-25T01:15:02.875Z,0
2017-03-25T01:20:03.499Z,0
2017-03-25T01:25:03.213Z,0
2017-03-25T01:30:03.149Z,0
2017-03-25T01:35:02.784Z,0
2017-03-25T01:40:02.555Z,0
2017-03-25T01:45:03.111Z,0
2017-03-25T01:50:02.759Z,0
2017-03-25T01:55:02.486Z,0
2017-03-25T02:00:03.165Z,0
2017-03-25T02:05:02.852Z,0
2017-03-25T02:10:02.542Z,0
2017-03-25T02:15:03.151Z,0
2017-03-25T02:20:02.729Z,0
2017-03-25T02:25:03.292Z,0
2017-03-25T02:30:03.197Z,0
2017-03-25T02:35:02.903Z,0
2017-03-25T02:40:02.679Z,0
2017-03-25T02:45:03.336Z,0
2017-03-25T02:50:02.951Z,0
2017-03-25T02:55:02.563Z,0
2017-03-25T03:00:03.171Z,0
2017-03-25T03:05:02.805Z,0
2017-03-25T03:10:02.626Z,0
2017-03-25T03:15:03.359Z,0
2017-03-25T03:20:03.027Z,0
2017-03-25T03:25:02.673Z,0
2017-03-25T03:30:03.601Z,0
2017-03-25T03:35:03.267Z,0
2017-03-25T03:40:03.032Z,0
2017-03-25T03:45:02.617Z,0
2017-03-25T03:50:03.180Z,0
2017-03-25T03:55:02.827Z,0
2017-03-25T04:00:02.564Z,0
2017-03-25T04:05:03.287Z,0
2017-03-25T04:10:03.043Z,0
2017-03-25T04:15:02.782Z,0
2017-03-25T04:20:03.332Z,0
2017-03-25T04:25:02.957Z,0
2017-03-25T04:30:02.793Z,0
2017-03-25T04:35:03.429Z,0
2017-03-25T04:40:03.176Z,0
2017-03-25T04:45:02.732Z,0
2017-03-25T04:50:03.463Z,0
2017-03-25T04:55:03.047Z,0
2017-03-25T05:00:02.666Z,3
2017-03-25T05:05:03.642Z,9
2017-03-25T05:10:03.425Z,21
2017-03-25T05:15:03.133Z,39
2017-03-25T05:20:02.682Z,55
2017-03-25T05:25:03.379Z,75
2017-03-25T05:30:03.236Z,163
2017-03-25T05:35:02.849Z,344
2017-03-25T05:40:02.542Z,473
2017-03-25T05:45:03.098Z,604
2017-03-25T05:50:02.801Z,883
2017-03-25T05:55:03.418Z,999
2017-03-25T06:00:02.977Z,1000
2017-03-25T06:05:02.533Z,1000
2017-03-25T06:10:03.199Z,1000
2017-03-25T06:15:02.997Z,1000
2017-03-25T06:20:02.598Z,1000
2017-03-25T06:25:03.286Z,1000
2017-03-25T06:30:02.949Z,1000
2017-03-25T06:35:02.638Z,1000
2017-03-25T06:40:03.313Z,2000
2017-03-25T06:45:03.058Z,2000
2017-03-25T06:50:02.562Z,2000
2017-03-25T06:55:03.289Z,2000
2017-03-25T07:00:02.958Z,2000
2017-03-25T07:05:02.746Z,2000
2017-03-25T07:10:02.650Z,2000
2017-03-25T07:15:03.280Z,3000
2017-03-25T07:20:02.972Z,3000
2017-03-25T07:25:02.545Z,3000
2017-03-25T07:30:03.318Z,4000
2017-03-25T07:35:03.044Z,4000
2017-03-25T07:40:02.783Z,4000
2017-03-25T07:45:02.560Z,4000
2017-03-25T07:50:03.301Z,4000
2017-03-25T07:55:02.967Z,5000
2017-03-25T08:00:02.575Z,5000
2017-03-25T08:05:03.178Z,5000
2017-03-25T08:10:02.910Z,26000
2017-03-25T08:15:02.486Z,35000
2017-03-25T08:20:03.167Z,30000
2017-03-25T08:25:02.816Z,37000
2017-03-25T08:30:03.498Z,39000
2017-03-25T08:35:03.168Z,42000
2017-03-25T08:40:02.899Z,45000
2017-03-25T08:45:02.560Z,36000
2017-03-25T08:50:03.287Z,46000
2017-03-25T08:55:02.852Z,49000
2017-03-25T09:00:02.559Z,29000
2017-03-25T09:05:03.215Z,42000
2017-03-25T09:10:02.996Z,39000
2017-03-25T09:15:02.547Z,48000
2017-03-25T09:20:03.157Z,49000
2017-03-25T09:25:02.772Z,52000
2017-03-25T09:30:03.517Z,53000
2017-03-25T09:35:03.231Z,53000
2017-03-25T09:40:02.846Z,56000
2017-03-25T09:45:02.500Z,56000
2017-03-25T09:50:03.249Z,41000
2017-03-25T09:55:03.119Z,55000
2017-03-25T10:00:02.715Z,54000
2017-03-25T10:05:03.293Z,54000
2017-03-25T10:10:03.165Z,57000
2017-03-25T10:15:02.755Z,49000
2017-03-25T10:20:03.299Z,54000
2017-03-25T10:25:03.177Z,57000
2017-03-25T10:30:02.873Z,46000
2017-03-25T10:35:02.521Z,34000
2017-03-25T10:40:02.747Z,33000
2017-03-25T10:45:03.461Z,28000
2017-03-25T10:50:03.105Z,35000
2017-03-25T10:55:02.818Z,47000
2017-03-25T11:00:02.832Z,47000
2017-03-25T11:05:03.507Z,58000
2017-03-25T11:10:03.352Z,59000
2017-03-25T11:15:03.191Z,37000
2017-03-25T11:20:02.943Z,58000
2017-03-25T11:25:03.002Z,59000
2017-03-25T11:30:02.878Z,51000
2017-03-25T11:35:02.932Z,55000
2017-03-25T11:40:02.772Z,46000
2017-03-25T11:45:02.716Z,39000
2017-03-25T11:50:02.559Z,50000
2017-03-25T11:55:02.842Z,34000
2017-03-25T12:00:03.039Z,22000
2017-03-25T12:05:02.796Z,37000
2017-03-25T12:10:02.820Z,36000
2017-03-25T12:15:02.933Z,50000
2017-03-25T12:20:03.264Z,50000
2017-03-25T12:25:02.609Z,51000
2017-03-25T12:30:02.531Z,50000
2017-03-25T12:35:02.823Z,48000
2017-03-25T12:40:03.399Z,46000
2017-03-25T12:45:02.536Z,47000
2017-03-25T12:50:02.704Z,30000
2017-03-25T12:55:02.548Z,40000
2017-03-25T13:00:03.437Z,36000
2017-03-25T13:05:03.167Z,40000
2017-03-25T13:10:02.622Z,42000
2017-03-25T13:15:03.582Z,42000
2017-03-25T13:20:03.362Z,41000
2017-03-25T13:25:03.026Z,40000
2017-03-25T13:30:02.817Z,39000
2017-03-25T13:35:03.558Z,37000
2017-03-25T13:40:03.314Z,37000
2017-03-25T13:45:02.933Z,36000
2017-03-25T13:50:02.738Z,36000
2017-03-25T13:55:03.456Z,36000
2017-03-25T14:00:03.478Z,36000
2017-03-25T14:05:03.270Z,35000
2017-03-25T14:10:02.609Z,35000
2017-03-25T14:15:02.771Z,34000
2017-03-25T14:20:03.028Z,34000
2017-03-25T14:25:03.262Z,33000
2017-03-25T14:30:02.972Z,32000
2017-03-25T14:35:03.528Z,31000
2017-03-25T14:40:02.643Z,30000
2017-03-25T14:45:02.992Z,29000
2017-03-25T14:50:02.850Z,28000
2017-03-25T14:55:02.491Z,28000
2017-03-25T15:00:03.331Z,27000
2017-03-25T15:05:02.611Z,24000
2017-03-25T15:10:02.957Z,24000
2017-03-25T15:15:03.334Z,24000
2017-03-25T15:20:03.147Z,24000
2017-03-25T15:25:02.731Z,24000
2017-03-25T15:30:03.023Z,23000
2017-03-25T15:35:02.636Z,23000
2017-03-25T15:40:03.352Z,23000
2017-03-25T15:45:02.712Z,22000
2017-03-25T15:50:03.052Z,22000
2017-03-25T15:55:03.036Z,21000
2017-03-25T16:00:03.249Z,23000
2017-03-25T16:05:03.102Z,23000
2017-03-25T16:10:03.335Z,20000
2017-03-25T16:15:03.471Z,19000
2017-03-25T16:20:02.678Z,18000
2017-03-25T16:25:02.966Z,13000
2017-03-25T16:30:03.173Z,3000
2017-03-25T16:35:02.499Z,3000
2017-03-25T16:40:02.869Z,3000
2017-03-25T16:45:03.160Z,3000
2017-03-25T16:50:03.236Z,3000
2017-03-25T16:55:03.485Z,3000
2017-03-25T17:00:03.215Z,2000
2017-03-25T17:05:03.038Z,2000
2017-03-25T17:10:02.859Z,2000
2017-03-25T17:15:02.645Z,2000
2017-03-25T17:20:03.296Z,1000
2017-03-25T17:25:03.105Z,1000
2017-03-25T17:30:02.858Z,1000
2017-03-25T17:35:03.415Z,1000
2017-03-25T17:40:03.288Z,859
2017-03-25T17:45:02.990Z,587
2017-03-25T17:50:02.726Z,456
2017-03-25T17:55:03.356Z,328
2017-03-25T18:00:03.015Z,113
2017-03-25T18:05:02.771Z,83
2017-03-25T18:10:02.642Z,62
2017-03-25T18:15:03.385Z,37
2017-03-25T18:20:03.007Z,17
2017-03-25T18:25:02.758Z,5
2017-03-25T18:30:03.405Z,2
2017-03-25T18:35:03.122Z,0
2017-03-25T18:40:02.913Z,0
2017-03-25T18:45:02.591Z,0
2017-03-25T18:50:03.140Z,0
2017-03-25T18:55:02.672Z,0
2017-03-25T19:00:03.258Z,0
2017-03-25T19:05:02.962Z,0
2017-03-25T19:10:02.680Z,0
2017-03-25T19:15:03.352Z,0
2017-03-25T19:20:03.120Z,0
2017-03-25T19:25:02.854Z,0
2017-03-25T19:30:02.509Z,0
2017-03-25T19:35:03.157Z,0
2017-03-25T19:40:02.899Z,0
2017-03-25T19:45:02.517Z,0
2017-03-25T19:50:03.125Z,0
2017-03-25T19:55:02.722Z,0
2017-03-25T20:00:02.539Z,0
2017-03-25T20:05:03.226Z,0
2017-03-25T20:10:02.953Z,0
2017-03-25T20:15:02.680Z,0
2017-03-25T20:20:03.345Z,0
2017-03-25T20:25:03.062Z,0
2017-03-25T20:30:02.714Z,0
2017-03-25T20:35:03.291Z,0
2017-03-25T20:40:03.010Z,0
2017-03-25T20:45:02.632Z,0
2017-03-25T20:50:03.385Z,0
2017-03-25T20:55:02.945Z,0
2017-03-25T21:00:02.679Z,0
2017-03-25T21:05:03.354Z,0
2017-03-25T21:10:03.136Z,0
2017-03-25T21:15:02.790Z,0
2017-03-25T21:20:02.541Z,0
2017-03-25T21:25:03.157Z,0
2017-03-25T21:30:02.812Z,0
2017-03-25T21:35:03.469Z,0
2017-03-25T21:40:03.097Z,0
2017-03-25T21:45:02.884Z,0
2017-03-25T21:50:02.497Z,0
2017-03-25T21:55:03.060Z,0
2017-03-25T22:00:02.777Z,0
2017-03-25T22:05:03.386Z,0
2017-03-25T22:10:03.039Z,0
2017-03-25T22:15:02.810Z,0
2017-03-25T22:20:02.491Z,0
2017-03-25T22:25:03.081Z,0
2017-03-25T22:30:02.830Z,0
2017-03-25T22:35:02.616Z,0
2017-03-25T22:40:03.440Z,0
2017-03-25T22:45:03.258Z,0
2017-03-25T22:50:02.981Z,0
2017-03-25T22:55:02.568Z,0
2017-03-25T23:00:03.292Z,0
2017-03-25T23:05:02.984Z,0
2017-03-25T23:10:02.643Z,0
2017-03-25T23:15:03.294Z,0
2017-03-25T23:20:03.046Z,0
2017-03-25T23:25:02.764Z,0
2017-03-25T23:30:03.414Z,0
2017-03-25T23:35:03.078Z,0
2017-03-25T23:40:02.840Z,0
2017-03-25T23:45:02.530Z,0
2017-03-25T23:50:03.166Z,0
2017-03-25T23:55:02.785Z,0
